Time;durP1;ratioP1;P1;durP2;ratioP2;P2;SDS_P1;SDS_P2;PMS_P1;PMS_P2;Temp;Humidity;BMP_temperature;BMP_pressure;BME280_temperature;BME280_humidity;BME280_pressure;Samples;Min_cycle;Max_cycle;Signal;HPM_P1;HPM_P2
2024/03/15 00:02:06;;;;;;;3.47;1.10;;;;;;;17.23;57.55;100515.88;10455648;28;20085;-60
2024/03/15 00:07:07;;;;;;;2.47;1.30;;;;;;;17.22;58.44;100511.63;10454483;28;20546;-60
2024/03/15 00:12:08;;;;;;;2.65;1.17;;;;;;;17.21;57.33;100512.69;10455209;28;20292;-60
2024/03/15 00:17:09;;;;;;;2.27;1.27;;;;;;;17.21;57.68;100510.81;10453648;28;20032;-59
2024/03/15 00:22:09;;;;;;;1.70;1.15;;;;;;;17.21;58.55;100513.50;10453385;28;20745;-60
2024/03/15 00:27:12;;;;;;;1.58;1.00;;;;;;;17.22;58.42;100503.56;10454444;28;20017;-59
2024/03/15 00:32:12;;;;;;;1.15;0.70;;;;;;;17.22;58.03;100503.56;10453972;28;20020;-59
2024/03/15 00:37:13;;;;;;;1.10;0.80;;;;;;;17.22;57.71;100503.56;10453089;28;20035;-59
2024/03/15 00:42:13;;;;;;;1.77;0.95;;;;;;;17.22;58.33;100485.63;10452910;28;20025;-59
2024/03/15 00:47:14;;;;;;;1.75;0.90;;;;;;;17.23;58.49;100483.72;10454144;28;20070;-60
2024/03/15 00:52:17;;;;;;;1.45;0.80;;;;;;;17.22;58.15;100472.22;10453639;28;20048;-60
2024/03/15 00:57:17;;;;;;;2.67;1.25;;;;;;;17.22;58.20;100477.56;10453881;28;20032;-59
2024/03/15 01:02:18;;;;;;;1.83;1.03;;;;;;;17.20;57.63;100474.41;10452999;28;20066;-60
2024/03/15 01:07:20;;;;;;;2.03;1.23;;;;;;;17.20;58.56;100461.00;10453240;28;20271;-60
2024/03/15 01:12:20;;;;;;;2.00;1.15;;;;;;;17.18;58.47;100460.50;10452823;28;20315;-60
2024/03/15 01:17:20;;;;;;;1.60;0.90;;;;;;;17.18;57.73;100463.19;10453016;28;20035;-60
2024/03/15 01:22:21;;;;;;;3.20;1.48;;;;;;;17.19;57.92;100455.94;10452190;28;20029;-60
2024/03/15 01:27:22;;;;;;;1.23;0.70;;;;;;;17.19;58.68;100455.94;10452363;28;20025;-59
2024/03/15 01:32:22;;;;;;;3.47;1.02;;;;;;;17.21;58.03;100451.88;10452207;28;20507;-59
2024/03/15 01:43:19;;;;;;;1.63;1.02;;;;;;;17.23;57.77;100447.00;10449535;28;20021;-60
2024/03/15 01:48:20;;;;;;;2.17;0.90;;;;;;;17.21;57.26;100438.47;10449357;28;20033;-59
2024/03/15 01:53:21;;;;;;;1.92;1.02;;;;;;;17.20;57.53;100439.56;10430967;28;20318;-59
2024/03/15 01:58:24;;;;;;;1.27;0.80;;;;;;;17.21;57.47;100440.34;10447823;28;20021;-59
2024/03/15 02:03:24;;;;;;;1.35;0.82;;;;;;;17.20;57.43;100431.53;10449444;28;20021;-59
2024/03/15 02:08:24;;;;;;;1.50;0.90;;;;;;;17.21;58.52;100441.16;10450765;28;20033;-59
2024/03/15 02:13:25;;;;;;;1.77;0.80;;;;;;;17.22;56.86;100434.69;10450037;28;20306;-59
2024/03/15 02:18:26;;;;;;;1.98;1.05;;;;;;;17.22;57.31;100436.59;10448829;28;20305;-59
2024/03/15 02:23:26;;;;;;;1.73;0.90;;;;;;;17.21;57.69;100433.13;10431179;28;20025;-58
2024/03/15 02:28:26;;;;;;;1.90;0.80;;;;;;;17.19;58.10;100437.19;10450040;28;20367;-59
2024/03/15 02:33:27;;;;;;;1.95;0.93;;;;;;;17.18;58.06;100439.06;10449580;28;20298;-59
2024/03/15 02:38:27;;;;;;;1.60;1.20;;;;;;;17.18;58.13;100440.94;10448213;28;20024;-59
2024/03/15 02:43:28;;;;;;;2.87;0.70;;;;;;;17.21;58.44;100443.03;10447415;28;20278;-60
2024/03/15 02:48:32;;;;;;;2.75;1.05;;;;;;;17.22;58.16;100433.91;10449077;28;20378;-59
2024/03/15 02:53:32;;;;;;;1.45;1.05;;;;;;;17.24;57.56;100437.09;10447094;28;20052;-60
2024/03/15 02:58:34;;;;;;;1.70;0.98;;;;;;;17.24;57.83;100429.84;10448817;28;20479;-59
2024/03/15 03:03:34;;;;;;;1.55;1.10;;;;;;;17.24;57.84;100435.19;10448309;28;20025;-59
2024/03/15 03:08:35;;;;;;;2.40;1.00;;;;;;;17.25;57.55;100436.00;10448947;28;20029;-59
2024/03/15 03:13:36;;;;;;;1.77;0.95;;;;;;;17.25;57.58;100441.34;10447369;28;20299;-59
2024/03/15 03:18:36;;;;;;;3.45;0.90;;;;;;;17.23;57.45;100454.25;10448052;28;20031;-59
2024/03/15 03:23:37;;;;;;;2.20;1.00;;;;;;;17.23;57.35;100446.22;10447898;28;20082;-59
2024/03/15 03:28:37;;;;;;;1.77;0.82;;;;;;;17.22;57.87;100441.94;10447746;28;20271;-59
2024/03/15 03:33:37;;;;;;;3.03;0.90;;;;;;;17.21;58.65;100448.41;10446207;28;20028;-59
2024/03/15 03:38:39;;;;;;;1.37;0.93;;;;;;;17.22;57.88;100447.31;10447451;28;20032;-59
2024/03/15 03:43:39;;;;;;;1.77;1.00;;;;;;;17.23;58.06;100454.25;10447053;28;20267;-59
2024/03/15 03:48:40;;;;;;;1.80;1.47;;;;;;;17.21;57.21;100459.91;10447519;28;20025;-59
2024/03/15 03:53:40;;;;;;;1.15;0.88;;;;;;;17.19;58.42;100470.13;10445042;28;20299;-58
2024/03/15 03:58:40;;;;;;;2.17;1.17;;;;;;;17.19;58.27;100463.97;10429284;28;20090;-59
2024/03/15 04:03:41;;;;;;;1.58;0.90;;;;;;;17.17;58.40;100464.28;10445273;28;20268;-59
2024/03/15 04:08:41;;;;;;;1.60;0.80;;;;;;;17.16;57.93;100465.34;10446785;28;20032;-59
2024/03/15 04:13:42;;;;;;;1.75;1.10;;;;;;;17.19;57.99;100470.13;10444855;28;20049;-59
2024/03/15 04:18:42;;;;;;;2.85;1.10;;;;;;;17.19;57.02;100469.34;10446387;28;20035;-58
2024/03/15 04:23:43;;;;;;;1.27;0.80;;;;;;;17.20;57.98;100465.56;10444808;28;20029;-60
2024/03/15 04:28:43;;;;;;;2.13;1.00;;;;;;;17.17;57.43;100461.59;10446538;28;20029;-59
2024/03/15 04:33:43;;;;;;;1.53;1.07;;;;;;;17.20;57.42;100450.28;10445799;28;20308;-59
2024/03/15 04:38:44;;;;;;;2.50;1.13;;;;;;;17.20;57.92;100452.97;10442627;28;20302;-58
2024/03/15 04:43:44;;;;;;;1.57;0.83;;;;;;;17.20;57.46;100444.94;10443415;28;20515;-59
2024/03/15 04:48:45;;;;;;;1.63;0.90;;;;;;;17.19;58.02;100440.66;10449272;28;20279;-58
2024/03/15 04:53:45;;;;;;;2.28;0.90;;;;;;;17.19;58.59;100447.91;10448660;28;20437;-59
2024/03/15 04:58:45;;;;;;;0.80;0.65;;;;;;;17.17;57.49;100440.16;10449030;28;20029;-58
2024/03/15 05:03:46;;;;;;;1.55;0.80;;;;;;;17.16;57.10;100440.44;10449048;28;20309;-59
2024/03/15 05:08:46;;;;;;;1.42;1.00;;;;;;;17.19;56.94;100443.34;10447813;28;20500;-57
2024/03/15 05:13:47;;;;;;;1.85;1.08;;;;;;;17.18;58.09;100443.63;10449597;28;20037;-60
2024/03/15 05:18:47;;;;;;;2.77;1.00;;;;;;;17.19;58.32;100432.63;10451988;28;20109;-59
2024/03/15 05:23:47;;;;;;;2.47;1.43;;;;;;;17.21;57.81;100435.78;10451858;28;20769;-59
2024/03/15 05:28:48;;;;;;;2.33;1.20;;;;;;;17.20;57.20;100438.78;10449417;28;20615;-59
2024/03/15 05:33:48;;;;;;;1.88;1.27;;;;;;;17.19;57.34;100445.22;10450319;28;20627;-59
2024/03/15 05:38:49;;;;;;;1.70;0.80;;;;;;;17.17;57.63;100440.16;10448117;28;20028;-61
2024/03/15 05:43:49;;;;;;;2.05;0.90;;;;;;;17.14;58.73;100435.38;10447033;28;20631;-60
2024/03/15 05:48:50;;;;;;;1.63;0.93;;;;;;;17.17;57.96;100444.72;10449309;28;20646;-59
2024/03/15 05:53:50;;;;;;;1.83;1.00;;;;;;;17.19;57.52;100448.69;10446887;28;20447;-59
2024/03/15 05:58:51;;;;;;;1.73;0.90;;;;;;;17.21;57.65;100451.88;10444625;28;20283;-59
2024/03/15 06:03:51;;;;;;;3.20;1.30;;;;;;;17.26;58.30;100445.63;10447442;28;20346;-60
2024/03/15 06:08:52;;;;;;;4.20;1.80;;;;;;;17.39;57.67;100452.91;10447385;28;20025;-57
2024/03/15 06:13:53;;;;;;;5.75;1.35;;;;;;;17.54;59.65;100455.34;10449283;28;20786;-56
2024/03/15 06:18:53;;;;;;;9.10;1.63;;;;;;;17.58;59.01;100455.53;10449402;28;20021;-60
2024/03/15 06:23:54;;;;;;;9.97;2.23;;;;;;;17.62;59.82;100461.09;10449982;28;20048;-60
2024/03/15 06:28:55;;;;;;;7.45;2.35;;;;;;;17.63;58.41;100465.38;10448197;28;20390;-60
2024/03/15 06:33:57;;;;;;;18.58;3.47;;;;;;;17.59;58.91;100462.50;10438295;28;20067;-61
2024/03/15 06:39:08;;;;;;;9.85;1.70;;;;;;;17.49;59.43;100466.16;10430578;28;20103;-59
2024/03/15 06:49:16;;;;;;;13.48;2.65;;;;;;;17.40;59.50;100478.63;10442277;28;20039;-61
2024/03/15 06:54:16;;;;;;;14.32;2.85;;;;;;;17.35;60.08;100484.06;10435724;28;20384;-60
2024/03/15 06:59:18;;;;;;;23.95;2.97;;;;;;;17.37;59.30;100483.78;10445023;28;20024;-65
2024/03/15 07:04:19;;;;;;;28.52;4.43;;;;;;;17.35;60.16;100496.69;10448428;28;20652;-60
2024/03/15 07:09:19;;;;;;;28.58;4.13;;;;;;;17.33;60.26;100493.50;10446939;28;20110;-61
2024/03/15 07:14:20;;;;;;;19.77;3.80;;;;;;;17.31;60.72;100490.31;10447791;28;20041;-61
2024/03/15 07:19:21;;;;;;;14.27;3.20;;;;;;;17.27;60.20;100489.28;10449704;28;20751;-60
2024/03/15 07:24:22;;;;;;;15.35;3.38;;;;;;;17.25;59.67;100494.94;10448675;28;20025;-60
2024/03/15 07:29:23;;;;;;;11.35;2.75;;;;;;;17.22;60.28;100493.66;10448743;28;20103;-60
2024/03/15 07:34:24;;;;;;;13.85;3.60;;;;;;;17.23;60.13;100499.81;10448907;28;20040;-60
2024/03/15 07:39:28;;;;;;;9.95;2.58;;;;;;;17.22;60.03;100499.00;10448842;28;20469;-60
2024/03/15 07:44:29;;;;;;;7.82;2.22;;;;;;;17.22;59.03;100503.56;10449713;28;20032;-61
2024/03/15 07:49:30;;;;;;;9.45;3.15;;;;;;;17.23;59.02;100505.16;10448857;28;20120;-61
2024/03/15 07:54:30;;;;;;;7.50;2.63;;;;;;;17.21;60.16;100508.13;10447888;28;20036;-60
2024/03/15 07:59:30;;;;;;;8.83;2.20;;;;;;;17.19;59.88;100510.31;10440999;28;20029;-60
2024/03/15 08:04:31;;;;;;;5.00;2.03;;;;;;;17.19;59.88;100504.16;10448454;28;20631;-60
2024/03/15 08:09:31;;;;;;;10.50;2.67;;;;;;;17.14;59.28;100505.03;10444220;28;20283;-60
2024/03/15 08:14:35;;;;;;;14.37;3.00;;;;;;;17.14;60.46;100509.59;10439784;28;20112;-60
2024/03/15 08:19:35;;;;;;;16.50;3.83;;;;;;;17.17;59.53;100517.06;10450981;28;20278;-60
2024/03/15 08:24:37;;;;;;;22.75;3.80;;;;;;;17.19;61.10;100514.88;10456572;28;20025;-60
2024/03/15 08:29:39;;;;;;;9.82;2.45;;;;;;;17.20;60.94;100524.50;10446696;28;20107;-60
2024/03/15 08:34:39;;;;;;;19.45;4.18;;;;;;;17.21;59.62;100521.53;10448470;28;20025;-60
2024/03/15 08:39:40;;;;;;;7.07;2.30;;;;;;;17.18;61.20;100521.34;10452353;28;20090;-60
2024/03/15 08:44:40;;;;;;;13.05;3.42;;;;;;;17.21;59.60;100536.81;10449823;28;20362;-59
2024/03/15 08:49:40;;;;;;;12.33;2.87;;;;;;;17.14;60.34;100522.97;10454058;28;20028;-59
2024/03/15 08:54:42;;;;;;;16.33;3.27;;;;;;;17.15;59.65;100538.75;10453457;28;20671;-60
2024/03/15 08:59:43;;;;;;;19.27;3.38;;;;;;;17.19;60.32;100545.16;10455738;28;20333;-59
2024/03/15 09:04:46;;;;;;;25.43;5.03;;;;;;;17.17;59.83;100546.53;10455657;28;20021;-60
2024/03/15 09:09:47;;;;;;;16.33;3.53;;;;;;;17.15;59.94;100554.03;10454385;28;20294;-60
2024/03/15 09:14:47;;;;;;;13.55;3.55;;;;;;;17.12;61.22;100549.25;10454606;28;20055;-60
2024/03/15 09:19:47;;;;;;;16.88;3.67;;;;;;;17.14;61.26;100542.53;10453682;28;20025;-60
2024/03/15 09:24:48;;;;;;;7.10;3.57;;;;;;;17.12;60.85;100546.59;10454491;28;20456;-59
2024/03/15 09:29:50;;;;;;;12.27;3.33;;;;;;;17.11;60.21;100542.31;10453390;28;20799;-59
2024/03/15 09:34:52;;;;;;;7.55;3.00;;;;;;;17.12;59.72;100546.59;10453561;28;20021;-59
2024/03/15 09:39:53;;;;;;;10.75;2.80;;;;;;;17.11;60.43;100550.34;10452973;28;20053;-59
2024/03/15 09:44:53;;;;;;;10.03;2.27;;;;;;;17.08;60.22;100549.06;10453335;28;20036;-60
2024/03/15 09:49:54;;;;;;;7.78;2.00;;;;;;;17.11;61.00;100553.03;10452582;28;20313;-60
2024/03/15 09:54:56;;;;;;;12.00;2.65;;;;;;;17.09;60.22;100539.94;10451793;28;20450;-60
2024/03/15 09:59:56;;;;;;;11.48;3.10;;;;;;;17.10;59.22;100540.72;10452368;28;20037;-60
2024/03/15 10:04:57;;;;;;;9.10;2.50;;;;;;;17.14;60.48;100547.88;10451347;28;20025;-58
2024/03/15 10:09:57;;;;;;;13.43;2.47;;;;;;;17.13;59.43;100551.66;10451709;28;20291;-60
2024/03/15 10:14:58;;;;;;;6.57;2.13;;;;;;;17.12;59.92;100551.94;10451691;28;20067;-60
2024/03/15 10:19:58;;;;;;;10.02;3.35;;;;;;;17.11;60.22;100555.72;10451126;28;20286;-59
2024/03/15 10:24:58;;;;;;;9.90;2.35;;;;;;;17.12;60.86;100560.78;10450206;28;20141;-59
2024/03/15 10:29:59;;;;;;;15.93;2.47;;;;;;;17.13;59.92;100561.56;10449697;28;20510;-60
2024/03/15 10:34:59;;;;;;;7.33;2.27;;;;;;;17.14;59.40;100563.97;10420307;28;20299;-59
2024/03/15 10:39:59;;;;;;;7.70;2.95;;;;;;;17.18;60.56;100551.59;10432686;28;20283;-60
2024/03/15 10:45:00;;;;;;;10.23;2.80;;;;;;;17.17;60.40;100559.94;10437240;28;20548;-60
2024/03/15 10:50:00;;;;;;;7.07;2.38;;;;;;;17.15;59.65;100546.78;10449022;28;20356;-60
2024/03/15 10:55:03;;;;;;;8.30;2.53;;;;;;;17.17;59.77;100549.22;10432594;28;20029;-60
2024/03/15 11:00:14;;;;;;;8.35;2.05;;;;;;;17.16;60.19;100555.63;10448529;28;20028;-60
2024/03/15 11:05:21;;;;;;;7.43;2.70;;;;;;;17.15;60.53;100541.44;10449162;28;20488;-60
2024/03/15 11:10:21;;;;;;;5.45;1.88;;;;;;;17.26;64.84;100555.47;10448468;28;20048;-60
2024/03/15 11:15:24;;;;;;;3.57;1.97;;;;;;;17.35;63.55;100553.75;10449669;28;20077;-60
2024/03/15 11:20:25;;;;;;;4.10;2.15;;;;;;;17.37;62.93;100548.88;10449185;28;20368;-60
2024/03/15 11:25:27;;;;;;;5.87;2.23;;;;;;;17.40;62.98;100555.53;10449473;28;20083;-60
2024/03/15 11:30:27;;;;;;;4.63;2.15;;;;;;;17.42;61.79;100550.72;10447498;28;20303;-61
2024/03/15 11:35:28;;;;;;;8.53;2.40;;;;;;;17.42;61.20;100538.09;10449456;28;20057;-60
2024/03/15 11:40:28;;;;;;;4.15;1.58;;;;;;;17.43;61.34;100541.59;10447578;28;20329;-61
2024/03/15 11:45:29;;;;;;;5.30;1.73;;;;;;;17.43;61.45;100538.91;10449173;28;20530;-60
2024/03/15 11:50:29;;;;;;;8.10;2.17;;;;;;;17.41;62.37;100538.41;10447164;28;20337;-60
2024/03/15 11:55:31;;;;;;;4.00;1.87;;;;;;;17.39;61.66;100560.13;10448024;28;20317;-60
2024/03/15 12:00:36;;;;;;;4.85;1.50;;;;;;;17.38;61.11;100561.19;10448113;28;20311;-60
2024/03/15 12:05:42;;;;;;;3.15;1.92;;;;;;;17.34;60.42;100548.69;10448895;28;20014;-60
2024/03/15 12:10:46;;;;;;;4.32;1.70;;;;;;;17.36;60.89;100546.50;10448028;28;20508;-60
2024/03/15 12:15:48;;;;;;;3.63;1.70;;;;;;;17.35;61.41;100547.59;10448227;28;20718;-60
2024/03/15 12:20:52;;;;;;;3.55;1.83;;;;;;;17.34;61.08;100546.81;10447782;28;20033;-60
2024/03/15 12:25:52;;;;;;;5.78;1.50;;;;;;;17.35;60.63;100529.63;10448231;28;20017;-59
2024/03/15 12:30:53;;;;;;;3.03;1.42;;;;;;;17.41;60.51;100525.00;10446197;28;20029;-60
2024/03/15 12:35:55;;;;;;;3.13;1.38;;;;;;;17.44;60.32;100514.50;10447686;28;20481;-59
2024/03/15 12:40:56;;;;;;;14.90;2.92;;;;;;;17.41;60.54;100522.31;10446554;28;20035;-59
2024/03/15 12:45:56;;;;;;;13.98;2.08;;;;;;;17.36;59.92;100507.09;10446872;28;20024;-61
2024/03/15 12:50:56;;;;;;;4.22;1.92;;;;;;;17.34;59.55;100503.91;10447492;28;20083;-60
2024/03/15 12:55:57;;;;;;;13.57;3.20;;;;;;;17.31;60.87;100514.44;10448237;28;20093;-61
2024/03/15 13:00:57;;;;;;;11.82;2.20;;;;;;;17.33;59.76;100512.25;10447457;28;20267;-61
2024/03/15 13:05:58;;;;;;;9.82;2.45;;;;;;;17.31;61.39;100504.50;10433276;28;20029;-61
2024/03/15 13:10:58;;;;;;;6.20;1.80;;;;;;;17.33;60.44;100514.94;10453862;28;20033;-61
2024/03/15 13:15:58;;;;;;;9.35;2.30;;;;;;;17.32;59.89;100497.28;10454059;28;20292;-60
2024/03/15 13:20:59;;;;;;;8.70;2.40;;;;;;;17.31;59.76;100487.63;10454209;28;20064;-61
2024/03/15 13:25:59;;;;;;;7.80;1.97;;;;;;;17.28;59.24;100502.41;10451043;28;20497;-60
2024/03/15 13:30:59;;;;;;;6.65;1.90;;;;;;;17.27;59.49;100506.16;10453491;28;20067;-61
2024/03/15 13:36:00;;;;;;;11.30;2.13;;;;;;;17.26;60.35;100507.25;10453945;28;20040;-60
2024/03/15 13:41:00;;;;;;;8.50;2.43;;;;;;;17.24;59.82;100510.22;10453343;28;20286;-61
2024/03/15 13:46:05;;;;;;;12.25;2.40;;;;;;;17.25;59.97;100501.09;10452281;28;20278;-60
2024/03/15 13:51:09;;;;;;;28.33;3.75;;;;;;;17.28;60.35;100512.31;10450470;28;20025;-62
2024/03/15 13:56:13;;;;;;;18.25;2.97;;;;;;;17.28;60.49;100510.44;10443381;28;20110;-62
2024/03/15 14:01:18;;;;;;;23.30;4.35;;;;;;;17.29;60.52;100519.28;10444646;28;20103;-60
2024/03/15 14:06:19;;;;;;;23.15;3.90;;;;;;;17.30;61.67;100527.03;10452341;28;20472;-56
2024/03/15 14:11:19;;;;;;;12.32;2.55;;;;;;;17.24;61.06;100510.22;10451728;28;20088;-58
2024/03/15 14:16:20;;;;;;;10.38;2.50;;;;;;;17.27;61.29;100508.84;10450336;28;20123;-58
2024/03/15 14:21:20;;;;;;;11.68;3.08;;;;;;;17.28;60.92;100494.34;10451282;28;20479;-58
2024/03/15 14:26:23;;;;;;;9.18;2.55;;;;;;;17.31;60.01;100493.00;10454197;28;20016;-58
2024/03/15 14:31:24;;;;;;;11.73;2.72;;;;;;;17.30;61.27;100492.22;10449028;28;20017;-57
2024/03/15 14:36:28;;;;;;;12.63;2.50;;;;;;;17.30;60.28;100504.81;10449952;28;20735;-57
2024/03/15 14:41:28;;;;;;;8.10;2.30;;;;;;;17.27;61.23;100502.69;10450444;28;20047;-57
2024/03/15 14:46:29;;;;;;;6.23;2.47;;;;;;;17.28;60.96;100498.91;10450724;28;20032;-56
2024/03/15 14:51:29;;;;;;;6.93;2.40;;;;;;;17.24;61.44;100502.19;10449775;28;20757;-57
2024/03/15 14:56:30;;;;;;;9.05;2.88;;;;;;;17.22;61.02;100512.41;10450407;28;20029;-57
2024/03/15 15:01:31;;;;;;;5.83;2.40;;;;;;;17.20;61.17;100505.75;10448082;28;20024;-58
2024/03/15 15:06:31;;;;;;;5.03;1.77;;;;;;;17.21;61.39;100507.34;10450390;28;20348;-58
2024/03/15 15:11:31;;;;;;;4.60;2.00;;;;;;;17.19;60.85;100523.72;10448393;28;20628;-57
2024/03/15 15:16:32;;;;;;;9.88;2.15;;;;;;;17.25;60.77;100516.38;10450115;28;20299;-59
2024/03/15 15:21:33;;;;;;;7.53;2.00;;;;;;;17.33;61.53;100512.25;10442812;28;20645;-59
2024/03/15 15:26:34;;;;;;;10.32;2.40;;;;;;;17.47;61.85;100513.91;10430218;28;20031;-58
2024/03/15 15:31:35;;;;;;;5.75;2.15;;;;;;;17.62;60.95;100517.41;10449168;28;20493;-58
2024/03/15 15:36:36;;;;;;;6.22;1.95;;;;;;;17.66;60.45;100519.22;10448466;28;20025;-58
2024/03/15 15:41:37;;;;;;;9.05;2.75;;;;;;;17.71;61.31;100518.38;10448644;28;20025;-58
2024/03/15 15:46:40;;;;;;;8.18;2.60;;;;;;;17.60;61.17;100515.03;10449319;28;20021;-58
2024/03/15 15:51:41;;;;;;;19.13;3.53;;;;;;;17.60;61.88;100519.59;10449692;28;20482;-62
2024/03/15 15:56:41;;;;;;;13.50;2.22;;;;;;;17.49;62.09;100509.03;10448917;28;20112;-61
2024/03/15 16:01:41;;;;;;;22.67;3.60;;;;;;;17.51;62.01;100528.28;10447028;28;20443;-60
2024/03/15 16:06:52;;;;;;;45.13;7.20;;;;;;;17.55;61.13;100533.88;10446952;28;20468;-62
2024/03/15 16:11:52;;;;;;;43.55;5.32;;;;;;;17.56;61.46;100529.31;10448121;28;20291;-59
2024/03/15 16:16:53;;;;;;;31.93;4.87;;;;;;;17.60;61.00;100530.31;10447893;28;20040;-61
2024/03/15 16:21:54;;;;;;;33.42;5.70;;;;;;;17.47;62.00;100538.03;10446722;28;20290;-60
2024/03/15 16:26:54;;;;;;;27.17;4.47;;;;;;;17.60;62.63;100539.16;10447808;28;20365;-60
2024/03/15 16:31:54;;;;;;;32.50;5.47;;;;;;;17.53;61.22;100536.06;10446471;28;20437;-59
2024/03/15 16:36:55;;;;;;;25.85;5.68;;;;;;;17.46;61.81;100544.47;10443539;28;20028;-60
2024/03/15 16:41:55;;;;;;;27.37;5.30;;;;;;;17.45;61.82;100556.28;10446201;28;20029;-60
2024/03/15 16:46:55;;;;;;;25.03;5.77;;;;;;;17.47;61.81;100554.09;10448936;28;20282;-59
2024/03/15 16:51:58;;;;;;;22.37;6.07;;;;;;;17.51;63.39;100562.34;10437856;28;20739;-60
2024/03/15 16:56:58;;;;;;;16.58;4.63;;;;;;;17.60;64.11;100565.16;10451792;28;20299;-61
2024/03/15 17:01:58;;;;;;;21.97;5.37;;;;;;;17.71;64.93;100561.28;10454599;28;20021;-60
2024/03/15 17:07:00;;;;;;;20.98;5.07;;;;;;;17.83;64.79;100573.13;10452202;28;20279;-61
2024/03/15 17:12:00;;;;;;;14.57;4.27;;;;;;;17.90;63.97;100569.28;10454340;28;20049;-61
2024/03/15 17:17:01;;;;;;;13.70;4.30;;;;;;;17.90;63.04;100571.97;10453919;28;20309;-61
2024/03/15 17:22:01;;;;;;;14.13;4.30;;;;;;;17.89;62.86;100573.84;10454030;28;20306;-62
2024/03/15 17:27:01;;;;;;;15.97;4.10;;;;;;;17.91;62.77;100574.34;10452508;28;20276;-63
2024/03/15 17:32:03;;;;;;;14.30;4.00;;;;;;;17.90;63.00;100571.97;10454024;28;20287;-62
2024/03/15 17:37:03;;;;;;;15.05;3.92;;;;;;;17.92;63.27;100583.19;10453389;28;20052;-58
2024/03/15 17:42:04;;;;;;;18.13;4.65;;;;;;;17.82;63.33;100589.53;10453501;28;20115;-59
2024/03/15 17:47:05;;;;;;;12.13;3.63;;;;;;;17.74;62.04;100596.34;10435120;28;20029;-59
2024/03/15 17:52:05;;;;;;;16.65;3.33;;;;;;;17.78;62.21;100604.63;10452057;28;20029;-59
2024/03/15 17:57:06;;;;;;;16.45;4.15;;;;;;;17.75;62.68;100599.81;10449726;28;20017;-59
2024/03/15 18:02:10;;;;;;;14.10;3.67;;;;;;;17.78;63.69;100607.28;10452230;28;20025;-61
2024/03/15 18:07:10;;;;;;;20.25;3.85;;;;;;;17.89;62.54;100607.94;10451250;28;20104;-59
2024/03/15 18:12:11;;;;;;;16.30;3.80;;;;;;;17.92;63.08;100610.81;10451816;28;20041;-56
2024/03/15 18:17:11;;;;;;;28.58;4.05;;;;;;;18.00;62.64;100615.53;10451165;28;20287;-60
2024/03/15 18:22:11;;;;;;;21.10;4.43;;;;;;;18.01;62.42;100617.13;10450410;28;20067;-58
2024/03/15 18:27:12;;;;;;;17.27;3.17;;;;;;;18.00;61.91;100623.56;10451672;28;20773;-58
2024/03/15 18:32:12;;;;;;;14.05;3.28;;;;;;;18.02;61.96;100623.28;10434379;28;20277;-58
2024/03/15 18:37:14;;;;;;;15.23;3.88;;;;;;;18.02;62.50;100629.44;10451808;28;20684;-59
2024/03/15 18:42:14;;;;;;;11.73;3.05;;;;;;;17.98;62.34;100631.09;10450267;28;20036;-59
2024/03/15 18:47:14;;;;;;;12.32;3.78;;;;;;;17.99;61.55;100627.31;10449112;28;20401;-59
2024/03/15 18:52:15;;;;;;;10.18;3.38;;;;;;;17.98;61.73;100632.97;10451405;28;20032;-59
2024/03/15 18:57:15;;;;;;;13.95;3.22;;;;;;;17.99;61.98;100640.72;10445282;28;20029;-59
2024/03/15 19:02:18;;;;;;;10.13;2.65;;;;;;;18.00;62.23;100644.22;10450199;28;20021;-60
2024/03/15 19:07:22;;;;;;;7.70;2.80;;;;;;;18.05;62.41;100638.78;10449791;28;20024;-61
2024/03/15 19:12:23;;;;;;;9.85;3.92;;;;;;;18.08;62.63;100652.38;10449511;28;20084;-59
2024/03/15 19:17:26;;;;;;;7.70;3.80;;;;;;;18.09;62.40;100648.63;10448016;28;20029;-59
2024/03/15 19:22:26;;;;;;;13.25;4.22;;;;;;;18.19;61.84;100644.19;10446754;28;20496;-59
2024/03/15 19:27:27;;;;;;;9.57;3.15;;;;;;;18.23;61.57;100648.69;10444094;28;20032;-61
2024/03/15 19:32:28;;;;;;;9.30;4.70;;;;;;;18.10;62.09;100649.41;10445055;28;20455;-58
2024/03/15 19:37:28;;;;;;;5.72;2.85;;;;;;;18.00;61.66;100647.72;10448281;28;20075;-60
2024/03/15 19:42:28;;;;;;;9.85;3.13;;;;;;;17.94;62.31;100653.44;10450053;28;20032;-59
2024/03/15 19:47:29;;;;;;;8.00;3.35;;;;;;;17.88;61.93;100646.53;10449357;28;20360;-59
2024/03/15 19:52:29;;;;;;;9.45;3.00;;;;;;;17.84;62.63;100659.75;10448743;28;20490;-59
2024/03/15 19:57:30;;;;;;;11.03;3.80;;;;;;;17.80;62.63;100654.19;10431252;28;20036;-60
2024/03/15 20:02:30;;;;;;;6.03;2.33;;;;;;;17.78;62.25;100653.69;10447424;28;20628;-57
2024/03/15 20:07:30;;;;;;;9.73;2.30;;;;;;;17.73;62.09;100655.63;10446782;28;20264;-57
2024/03/15 20:12:31;;;;;;;5.33;2.47;;;;;;;17.73;61.63;100652.94;10446581;28;20283;-60
2024/03/15 20:17:32;;;;;;;9.40;3.67;;;;;;;17.70;62.70;100653.53;10456006;28;20792;-59
2024/03/15 20:22:32;;;;;;;7.93;3.17;;;;;;;17.69;61.96;100660.00;10457351;28;20032;-59
2024/03/15 20:27:33;;;;;;;9.15;3.38;;;;;;;17.66;61.92;100661.34;10454495;28;20275;-59
2024/03/15 20:32:33;;;;;;;6.93;2.50;;;;;;;17.64;62.43;100658.16;10451504;28;20531;-60
2024/03/15 20:37:33;;;;;;;9.15;3.22;;;;;;;17.64;62.12;100657.34;10453582;28;20291;-60
2024/03/15 20:42:34;;;;;;;7.70;2.70;;;;;;;17.63;61.51;100661.09;10451170;28;20029;-59
2024/03/15 20:47:34;;;;;;;7.60;2.00;;;;;;;17.61;61.29;100668.66;10455089;28;20333;-59
2024/03/15 20:52:35;;;;;;;8.07;2.97;;;;;;;17.59;62.05;100668.94;10456179;28;20020;-60
2024/03/15 20:57:35;;;;;;;7.13;2.70;;;;;;;17.56;62.14;100671.41;10455829;28;20033;-59
2024/03/15 21:02:35;;;;;;;5.28;1.92;;;;;;;17.54;61.49;100669.81;10456176;28;20048;-59
2024/03/15 21:07:36;;;;;;;5.30;2.57;;;;;;;17.53;62.35;100667.44;10455432;28;20028;-60
2024/03/15 21:12:37;;;;;;;6.57;2.57;;;;;;;17.53;61.60;100675.47;10454295;28;20300;-59
2024/03/15 21:17:37;;;;;;;11.27;2.55;;;;;;;17.52;61.43;100668.50;10455167;28;20345;-59
2024/03/15 21:22:39;;;;;;;5.80;3.17;;;;;;;17.49;61.15;100677.91;10455293;28;20021;-59
2024/03/15 21:27:40;;;;;;;5.88;2.75;;;;;;;17.50;60.93;100678.72;10453246;28;20307;-59
2024/03/15 21:32:41;;;;;;;8.65;2.95;;;;;;;17.50;61.50;100681.38;10455043;28;20500;-59
2024/03/15 21:37:41;;;;;;;6.60;2.60;;;;;;;17.50;62.22;100674.13;10451886;28;20075;-59
2024/03/15 21:42:45;;;;;;;5.82;2.10;;;;;;;17.51;61.18;100672.25;10453394;28;20028;-59
2024/03/15 21:47:46;;;;;;;6.13;2.00;;;;;;;17.51;62.17;100678.41;10453985;28;20017;-59
2024/03/15 21:52:47;;;;;;;5.82;2.85;;;;;;;17.50;61.20;100684.06;10453921;28;20033;-59
2024/03/15 21:57:49;;;;;;;4.43;2.75;;;;;;;17.48;60.96;100692.41;10452355;28;20060;-59
2024/03/15 22:02:53;;;;;;;4.03;2.30;;;;;;;17.47;61.50;100698.06;10453731;28;20480;-59
2024/03/15 22:07:54;;;;;;;6.78;2.03;;;;;;;17.45;61.37;100697.56;10451682;28;20480;-59
2024/03/15 22:12:55;;;;;;;7.53;2.70;;;;;;;17.44;61.40;100699.44;10453004;28;20057;-59
2024/03/15 22:17:55;;;;;;;6.60;2.58;;;;;;;17.46;61.04;100707.19;10452762;28;20032;-59
2024/03/15 22:22:59;;;;;;;8.15;2.53;;;;;;;17.45;61.16;100711.75;10451792;28;20029;-59
2024/03/15 22:27:59;;;;;;;4.95;2.10;;;;;;;17.45;60.92;100711.75;10452431;28;20035;-59
2024/03/15 22:33:00;;;;;;;4.25;1.63;;;;;;;17.47;61.60;100716.81;10452607;28;20818;-59
2024/03/15 22:38:01;;;;;;;6.20;1.90;;;;;;;17.48;60.23;100715.72;10451221;28;20024;-60
2024/03/15 22:43:02;;;;;;;7.82;2.80;;;;;;;17.48;60.54;100708.50;10452270;28;20091;-58
2024/03/15 22:48:03;;;;;;;4.20;1.83;;;;;;;17.49;60.06;100715.44;10452206;28;20027;-59
2024/03/15 22:53:05;;;;;;;6.40;2.10;;;;;;;17.46;60.51;100716.03;10451638;28;20403;-59
2024/03/15 22:58:06;;;;;;;6.28;1.70;;;;;;;17.47;60.19;100719.50;10451634;28;20149;-59
2024/03/15 23:03:08;;;;;;;3.65;1.60;;;;;;;17.44;60.04;100718.19;10451482;28;20053;-59
2024/03/15 23:08:08;;;;;;;5.72;1.75;;;;;;;17.43;60.39;100721.16;10450577;28;20031;-58